sensor_id;sensor_type;location;lat;lon;timestamp;P1;durP1;ratioP1;P2;durP2;ratioP2
14015;SDS011;7083;48.854;9.158;2022-10-23T00:01:36;847.30;;;789.13;;
14015;SDS011;7083;48.854;9.158;2022-10-23T00:04:06;1067.00;;;975.27;;
14015;SDS011;7083;48.854;9.158;2022-10-23T00:06:36;1078.23;;;982.27;;
14015;SDS011;7083;48.854;9.158;2022-10-23T00:09:05;928.63;;;860.93;;
14015;SDS011;7083;48.854;9.158;2022-10-23T00:11:34;1050.70;;;962.13;;
14015;SDS011;7083;48.854;9.158;2022-10-23T00:14:02;1183.20;;;999.90;;
14015;SDS011;7083;48.854;9.158;2022-10-23T00:16:30;1189.83;;;999.90;;
14015;SDS011;7083;48.854;9.158;2022-10-23T00:18:57;1200.57;;;999.90;;
14015;SDS011;7083;48.854;9.158;2022-10-23T00:21:24;1114.03;;;997.47;;
14015;SDS011;7083;48.854;9.158;2022-10-23T00:23:52;1103.27;;;996.27;;
14015;SDS011;7083;48.854;9.158;2022-10-23T00:26:19;1099.40;;;992.23;;
14015;SDS011;7083;48.854;9.158;2022-10-23T00:28:46;1117.53;;;998.77;;
14015;SDS011;7083;48.854;9.158;2022-10-23T00:31:16;1114.30;;;999.70;;
14015;SDS011;7083;48.854;9.158;2022-10-23T00:33:43;1034.17;;;948.87;;
14015;SDS011;7083;48.854;9.158;2022-10-23T00:36:12;816.13;;;760.13;;
14015;SDS011;7083;48.854;9.158;2022-10-23T00:38:40;860.60;;;795.90;;
14015;SDS011;7083;48.854;9.158;2022-10-23T00:41:10;976.90;;;901.57;;
14015;SDS011;7083;48.854;9.158;2022-10-23T00:43:58;1023.03;;;936.77;;
14015;SDS011;7083;48.854;9.158;2022-10-23T00:46:31;1073.57;;;979.27;;
14015;SDS011;7083;48.854;9.158;2022-10-23T00:48:58;1083.87;;;987.60;;
14015;SDS011;7083;48.854;9.158;2022-10-23T00:51:26;1071.50;;;976.80;;
14015;SDS011;7083;48.854;9.158;2022-10-23T00:53:57;1110.90;;;998.13;;
14015;SDS011;7083;48.854;9.158;2022-10-23T00:56:26;322.63;;;305.87;;
14015;SDS011;7083;48.854;9.158;2022-10-23T00:58:53;815.50;;;760.77;;
14015;SDS011;7083;48.854;9.158;2022-10-23T01:01:21;926.30;;;852.27;;
14015;SDS011;7083;48.854;9.158;2022-10-23T01:03:48;965.17;;;890.97;;
14015;SDS011;7083;48.854;9.158;2022-10-23T01:06:17;1009.10;;;922.97;;
14015;SDS011;7083;48.854;9.158;2022-10-23T01:08:53;1041.63;;;957.83;;
14015;SDS011;7083;48.854;9.158;2022-10-23T01:11:25;1087.57;;;988.70;;
14015;SDS011;7083;48.854;9.158;2022-10-23T01:14:00;1124.70;;;999.90;;
14015;SDS011;7083;48.854;9.158;2022-10-23T01:16:34;1215.03;;;999.90;;
14015;SDS011;7083;48.854;9.158;2022-10-23T01:19:08;1145.63;;;999.90;;
14015;SDS011;7083;48.854;9.158;2022-10-23T01:21:45;1104.43;;;996.63;;
14015;SDS011;7083;48.854;9.158;2022-10-23T01:24:23;1171.17;;;999.90;;
14015;SDS011;7083;48.854;9.158;2022-10-23T01:27:19;1172.50;;;999.90;;
14015;SDS011;7083;48.854;9.158;2022-10-23T01:29:48;1169.37;;;999.90;;
14015;SDS011;7083;48.854;9.158;2022-10-23T01:32:24;1202.23;;;999.90;;
14015;SDS011;7083;48.854;9.158;2022-10-23T01:34:57;953.43;;;881.07;;
14015;SDS011;7083;48.854;9.158;2022-10-23T01:37:32;1101.23;;;995.80;;
14015;SDS011;7083;48.854;9.158;2022-10-23T01:40:02;1123.53;;;999.90;;
14015;SDS011;7083;48.854;9.158;2022-10-23T01:42:34;350.20;;;332.53;;
14015;SDS011;7083;48.854;9.158;2022-10-23T01:45:05;989.90;;;912.20;;
14015;SDS011;7083;48.854;9.158;2022-10-23T01:47:38;1102.60;;;993.57;;
14015;SDS011;7083;48.854;9.158;2022-10-23T01:50:09;1091.97;;;989.77;;
14015;SDS011;7083;48.854;9.158;2022-10-23T01:52:38;1142.93;;;999.90;;
14015;SDS011;7083;48.854;9.158;2022-10-23T01:55:05;1165.57;;;999.90;;
14015;SDS011;7083;48.854;9.158;2022-10-23T01:57:37;1221.30;;;999.90;;
14015;SDS011;7083;48.854;9.158;2022-10-23T02:00:07;1243.93;;;999.90;;
14015;SDS011;7083;48.854;9.158;2022-10-23T02:02:35;1037.90;;;952.67;;
14015;SDS011;7083;48.854;9.158;2022-10-23T02:05:05;1087.73;;;987.07;;
14015;SDS011;7083;48.854;9.158;2022-10-23T02:07:35;1131.57;;;999.90;;
14015;SDS011;7083;48.854;9.158;2022-10-23T02:10:03;1047.17;;;955.63;;
14015;SDS011;7083;48.854;9.158;2022-10-23T02:12:32;1159.13;;;999.90;;
14015;SDS011;7083;48.854;9.158;2022-10-23T02:15:11;1179.63;;;999.90;;
14015;SDS011;7083;48.854;9.158;2022-10-23T02:17:44;1100.50;;;995.73;;
14015;SDS011;7083;48.854;9.158;2022-10-23T02:20:18;1123.47;;;999.90;;
14015;SDS011;7083;48.854;9.158;2022-10-23T02:22:53;997.57;;;921.33;;
14015;SDS011;7083;48.854;9.158;2022-10-23T02:25:27;1034.80;;;951.17;;
14015;SDS011;7083;48.854;9.158;2022-10-23T02:28:00;1131.87;;;999.90;;
14015;SDS011;7083;48.854;9.158;2022-10-23T02:30:31;1073.87;;;977.57;;
14015;SDS011;7083;48.854;9.158;2022-10-23T02:33:00;743.97;;;694.33;;
14015;SDS011;7083;48.854;9.158;2022-10-23T02:35:29;1052.13;;;964.57;;
14015;SDS011;7083;48.854;9.158;2022-10-23T02:37:57;1047.83;;;958.60;;
14015;SDS011;7083;48.854;9.158;2022-10-23T02:40:28;1063.57;;;971.77;;
14015;SDS011;7083;48.854;9.158;2022-10-23T02:43:01;1078.00;;;986.47;;
14015;SDS011;7083;48.854;9.158;2022-10-23T02:45:32;1016.57;;;935.97;;
14015;SDS011;7083;48.854;9.158;2022-10-23T02:48:07;1055.17;;;965.30;;
14015;SDS011;7083;48.854;9.158;2022-10-23T02:50:43;989.70;;;908.70;;
14015;SDS011;7083;48.854;9.158;2022-10-23T02:53:17;1046.90;;;963.47;;
14015;SDS011;7083;48.854;9.158;2022-10-23T02:55:54;1094.63;;;996.93;;
14015;SDS011;7083;48.854;9.158;2022-10-23T02:58:29;861.73;;;798.27;;
14015;SDS011;7083;48.854;9.158;2022-10-23T03:01:03;1003.50;;;924.13;;
14015;SDS011;7083;48.854;9.158;2022-10-23T03:03:34;1013.30;;;928.33;;
14015;SDS011;7083;48.854;9.158;2022-10-23T03:06:05;850.23;;;791.77;;
14015;SDS011;7083;48.854;9.158;2022-10-23T03:08:39;1047.33;;;956.43;;
14015;SDS011;7083;48.854;9.158;2022-10-23T03:11:06;1040.90;;;952.60;;
14015;SDS011;7083;48.854;9.158;2022-10-23T03:13:35;1114.00;;;999.90;;
14015;SDS011;7083;48.854;9.158;2022-10-23T03:16:01;1140.27;;;999.90;;
14015;SDS011;7083;48.854;9.158;2022-10-23T03:18:28;943.47;;;873.60;;
14015;SDS011;7083;48.854;9.158;2022-10-23T03:20:55;1040.00;;;948.40;;
14015;SDS011;7083;48.854;9.158;2022-10-23T03:23:21;1151.33;;;999.90;;
14015;SDS011;7083;48.854;9.158;2022-10-23T03:25:48;1152.20;;;999.90;;
14015;SDS011;7083;48.854;9.158;2022-10-23T03:28:15;1268.43;;;999.90;;
14015;SDS011;7083;48.854;9.158;2022-10-23T03:30:43;1278.60;;;999.90;;
14015;SDS011;7083;48.854;9.158;2022-10-23T03:33:10;1249.30;;;999.90;;
14015;SDS011;7083;48.854;9.158;2022-10-23T03:35:36;1207.90;;;999.90;;
14015;SDS011;7083;48.854;9.158;2022-10-23T03:38:03;1256.47;;;999.90;;
14015;SDS011;7083;48.854;9.158;2022-10-23T03:40:30;1347.33;;;999.90;;
14015;SDS011;7083;48.854;9.158;2022-10-23T03:42:57;1409.17;;;999.90;;
14015;SDS011;7083;48.854;9.158;2022-10-23T03:45:23;1337.53;;;999.90;;
14015;SDS011;7083;48.854;9.158;2022-10-23T03:47:52;1105.13;;;999.90;;
14015;SDS011;7083;48.854;9.158;2022-10-23T03:50:18;1223.93;;;999.90;;
14015;SDS011;7083;48.854;9.158;2022-10-23T03:52:45;1453.60;;;999.90;;
14015;SDS011;7083;48.854;9.158;2022-10-23T03:55:12;1280.73;;;999.90;;
14015;SDS011;7083;48.854;9.158;2022-10-23T03:57:39;1342.53;;;999.90;;
14015;SDS011;7083;48.854;9.158;2022-10-23T04:00:06;1172.00;;;999.90;;
14015;SDS011;7083;48.854;9.158;2022-10-23T04:02:33;1207.77;;;999.90;;
14015;SDS011;7083;48.854;9.158;2022-10-23T04:05:02;975.33;;;897.50;;
14015;SDS011;7083;48.854;9.158;2022-10-23T04:07:28;1322.93;;;999.90;;
14015;SDS011;7083;48.854;9.158;2022-10-23T04:09:55;886.73;;;819.90;;
14015;SDS011;7083;48.854;9.158;2022-10-23T04:12:22;783.53;;;729.20;;
14015;SDS011;7083;48.854;9.158;2022-10-23T04:14:49;1099.50;;;995.63;;
14015;SDS011;7083;48.854;9.158;2022-10-23T04:17:15;731.47;;;681.90;;
14015;SDS011;7083;48.854;9.158;2022-10-23T04:19:42;297.17;;;281.83;;
14015;SDS011;7083;48.854;9.158;2022-10-23T04:22:10;1066.97;;;978.43;;
14015;SDS011;7083;48.854;9.158;2022-10-23T04:24:37;320.33;;;303.67;;
14015;SDS011;7083;48.854;9.158;2022-10-23T04:27:09;1034.70;;;945.30;;
14015;SDS011;7083;48.854;9.158;2022-10-23T04:29:36;1098.60;;;996.67;;
14015;SDS011;7083;48.854;9.158;2022-10-23T04:32:02;1125.17;;;999.90;;
14015;SDS011;7083;48.854;9.158;2022-10-23T04:34:29;1134.17;;;999.90;;
14015;SDS011;7083;48.854;9.158;2022-10-23T04:36:56;1199.70;;;999.90;;
14015;SDS011;7083;48.854;9.158;2022-10-23T04:39:24;1197.20;;;999.90;;
14015;SDS011;7083;48.854;9.158;2022-10-23T04:41:51;1229.57;;;999.90;;
14015;SDS011;7083;48.854;9.158;2022-10-23T04:44:17;1210.53;;;999.90;;
14015;SDS011;7083;48.854;9.158;2022-10-23T04:46:44;1248.27;;;999.90;;
14015;SDS011;7083;48.854;9.158;2022-10-23T04:49:11;1282.47;;;999.90;;
14015;SDS011;7083;48.854;9.158;2022-10-23T04:51:37;1244.40;;;999.90;;
14015;SDS011;7083;48.854;9.158;2022-10-23T04:54:04;1213.33;;;999.90;;
14015;SDS011;7083;48.854;9.158;2022-10-23T04:56:32;1312.93;;;999.90;;
14015;SDS011;7083;48.854;9.158;2022-10-23T04:58:59;1229.07;;;999.90;;
14015;SDS011;7083;48.854;9.158;2022-10-23T05:01:26;1198.40;;;999.90;;
14015;SDS011;7083;48.854;9.158;2022-10-23T05:03:53;1193.33;;;999.90;;
14015;SDS011;7083;48.854;9.158;2022-10-23T05:06:20;1238.90;;;999.90;;
14015;SDS011;7083;48.854;9.158;2022-10-23T05:08:47;1251.87;;;999.90;;
14015;SDS011;7083;48.854;9.158;2022-10-23T05:11:14;1303.87;;;999.90;;
14015;SDS011;7083;48.854;9.158;2022-10-23T05:13:42;1214.97;;;999.90;;
14015;SDS011;7083;48.854;9.158;2022-10-23T05:16:09;1021.27;;;940.80;;
14015;SDS011;7083;48.854;9.158;2022-10-23T05:18:44;352.13;;;333.97;;
14015;SDS011;7083;48.854;9.158;2022-10-23T05:21:14;1040.70;;;950.77;;
14015;SDS011;7083;48.854;9.158;2022-10-23T05:23:46;348.10;;;329.97;;
14015;SDS011;7083;48.854;9.158;2022-10-23T05:26:13;918.57;;;854.27;;
14015;SDS011;7083;48.854;9.158;2022-10-23T05:28:40;1059.20;;;964.60;;
14015;SDS011;7083;48.854;9.158;2022-10-23T05:31:08;1105.80;;;999.90;;
14015;SDS011;7083;48.854;9.158;2022-10-23T05:33:35;1114.17;;;999.90;;
14015;SDS011;7083;48.854;9.158;2022-10-23T05:36:02;1129.50;;;999.90;;
14015;SDS011;7083;48.854;9.158;2022-10-23T05:38:30;1140.57;;;999.90;;
14015;SDS011;7083;48.854;9.158;2022-10-23T05:40:59;1165.20;;;999.90;;
14015;SDS011;7083;48.854;9.158;2022-10-23T05:43:27;1117.37;;;999.90;;
14015;SDS011;7083;48.854;9.158;2022-10-23T05:45:55;1225.93;;;999.90;;
14015;SDS011;7083;48.854;9.158;2022-10-23T05:48:23;941.50;;;871.43;;
14015;SDS011;7083;48.854;9.158;2022-10-23T05:50:50;1113.40;;;999.90;;
14015;SDS011;7083;48.854;9.158;2022-10-23T05:53:16;1144.03;;;999.90;;
14015;SDS011;7083;48.854;9.158;2022-10-23T05:55:43;1138.20;;;999.90;;
14015;SDS011;7083;48.854;9.158;2022-10-23T05:58:10;1141.20;;;999.90;;
14015;SDS011;7083;48.854;9.158;2022-10-23T06:00:36;1156.50;;;999.90;;
14015;SDS011;7083;48.854;9.158;2022-10-23T06:03:03;1139.80;;;999.90;;
14015;SDS011;7083;48.854;9.158;2022-10-23T06:05:31;1155.00;;;999.90;;
14015;SDS011;7083;48.854;9.158;2022-10-23T06:07:58;1188.00;;;999.90;;
14015;SDS011;7083;48.854;9.158;2022-10-23T06:10:25;1121.20;;;999.90;;
14015;SDS011;7083;48.854;9.158;2022-10-23T06:12:51;1139.30;;;999.90;;
14015;SDS011;7083;48.854;9.158;2022-10-23T06:15:18;1095.47;;;999.90;;
14015;SDS011;7083;48.854;9.158;2022-10-23T06:17:45;1108.23;;;999.47;;
14015;SDS011;7083;48.854;9.158;2022-10-23T06:20:12;1101.07;;;998.90;;
14015;SDS011;7083;48.854;9.158;2022-10-23T06:22:40;1103.57;;;999.90;;
14015;SDS011;7083;48.854;9.158;2022-10-23T06:25:07;1149.50;;;999.90;;
14015;SDS011;7083;48.854;9.158;2022-10-23T06:27:34;1114.90;;;999.90;;
14015;SDS011;7083;48.854;9.158;2022-10-23T06:30:01;1007.77;;;927.43;;
14015;SDS011;7083;48.854;9.158;2022-10-23T06:32:30;1118.13;;;999.90;;
14015;SDS011;7083;48.854;9.158;2022-10-23T06:34:57;1124.37;;;999.90;;
14015;SDS011;7083;48.854;9.158;2022-10-23T06:37:23;1164.00;;;999.90;;
14015;SDS011;7083;48.854;9.158;2022-10-23T06:39:51;1144.50;;;999.90;;
14015;SDS011;7083;48.854;9.158;2022-10-23T06:42:21;1162.13;;;999.90;;
14015;SDS011;7083;48.854;9.158;2022-10-23T06:44:56;1117.40;;;999.90;;
14015;SDS011;7083;48.854;9.158;2022-10-23T06:47:25;1113.77;;;999.90;;
14015;SDS011;7083;48.854;9.158;2022-10-23T06:49:51;1144.97;;;999.90;;
14015;SDS011;7083;48.854;9.158;2022-10-23T06:52:18;238.37;;;224.40;;
14015;SDS011;7083;48.854;9.158;2022-10-23T06:54:45;968.43;;;892.63;;
14015;SDS011;7083;48.854;9.158;2022-10-23T06:57:13;1027.87;;;940.77;;
14015;SDS011;7083;48.854;9.158;2022-10-23T06:59:40;1076.77;;;985.47;;
14015;SDS011;7083;48.854;9.158;2022-10-23T07:02:07;1077.33;;;985.87;;
14015;SDS011;7083;48.854;9.158;2022-10-23T07:04:49;270.83;;;255.10;;
14015;SDS011;7083;48.854;9.158;2022-10-23T07:07:28;907.40;;;841.27;;
14015;SDS011;7083;48.854;9.158;2022-10-23T07:09:57;1021.10;;;936.33;;
14015;SDS011;7083;48.854;9.158;2022-10-23T07:12:26;1052.00;;;962.70;;
14015;SDS011;7083;48.854;9.158;2022-10-23T07:14:53;988.77;;;907.67;;
14015;SDS011;7083;48.854;9.158;2022-10-23T07:17:20;308.47;;;289.63;;
14015;SDS011;7083;48.854;9.158;2022-10-23T07:19:46;800.37;;;746.20;;
14015;SDS011;7083;48.854;9.158;2022-10-23T07:22:13;332.47;;;313.33;;
14015;SDS011;7083;48.854;9.158;2022-10-23T07:24:40;856.87;;;796.53;;
14015;SDS011;7083;48.854;9.158;2022-10-23T07:27:07;316.10;;;298.73;;
14015;SDS011;7083;48.854;9.158;2022-10-23T07:29:35;871.97;;;811.30;;
14015;SDS011;7083;48.854;9.158;2022-10-23T07:32:02;769.33;;;719.87;;
14015;SDS011;7083;48.854;9.158;2022-10-23T07:34:29;859.43;;;799.70;;
14015;SDS011;7083;48.854;9.158;2022-10-23T07:36:56;856.40;;;797.10;;
14015;SDS011;7083;48.854;9.158;2022-10-23T07:39:23;810.87;;;754.03;;
14015;SDS011;7083;48.854;9.158;2022-10-23T07:41:50;425.70;;;400.97;;
14015;SDS011;7083;48.854;9.158;2022-10-23T07:44:16;356.87;;;335.80;;
14015;SDS011;7083;48.854;9.158;2022-10-23T07:46:46;407.43;;;385.10;;
14015;SDS011;7083;48.854;9.158;2022-10-23T07:49:12;417.37;;;393.30;;
14015;SDS011;7083;48.854;9.158;2022-10-23T07:51:39;765.33;;;718.17;;
14015;SDS011;7083;48.854;9.158;2022-10-23T07:54:06;846.80;;;789.77;;
14015;SDS011;7083;48.854;9.158;2022-10-23T07:56:34;900.17;;;837.67;;
14015;SDS011;7083;48.854;9.158;2022-10-23T07:59:01;876.57;;;815.50;;
14015;SDS011;7083;48.854;9.158;2022-10-23T08:01:29;410.60;;;387.87;;
14015;SDS011;7083;48.854;9.158;2022-10-23T08:03:58;826.57;;;772.93;;
14015;SDS011;7083;48.854;9.158;2022-10-23T08:06:25;903.70;;;841.60;;
14015;SDS011;7083;48.854;9.158;2022-10-23T08:08:52;436.77;;;412.83;;
14015;SDS011;7083;48.854;9.158;2022-10-23T08:11:20;621.13;;;585.03;;
14015;SDS011;7083;48.854;9.158;2022-10-23T08:13:51;498.60;;;471.60;;
14015;SDS011;7083;48.854;9.158;2022-10-23T08:16:18;466.63;;;442.23;;
14015;SDS011;7083;48.854;9.158;2022-10-23T08:18:44;466.23;;;442.57;;
14015;SDS011;7083;48.854;9.158;2022-10-23T08:21:15;611.67;;;576.27;;
14015;SDS011;7083;48.854;9.158;2022-10-23T08:23:43;699.07;;;655.97;;
14015;SDS011;7083;48.854;9.158;2022-10-23T08:26:10;569.87;;;537.37;;
14015;SDS011;7083;48.854;9.158;2022-10-23T08:28:37;784.77;;;733.77;;
14015;SDS011;7083;48.854;9.158;2022-10-23T08:31:07;544.60;;;514.60;;
14015;SDS011;7083;48.854;9.158;2022-10-23T08:33:35;561.10;;;529.33;;
14015;SDS011;7083;48.854;9.158;2022-10-23T08:36:02;655.13;;;614.50;;
14015;SDS011;7083;48.854;9.158;2022-10-23T08:38:31;517.07;;;488.97;;
14015;SDS011;7083;48.854;9.158;2022-10-23T08:40:59;524.20;;;495.63;;
14015;SDS011;7083;48.854;9.158;2022-10-23T08:43:29;1002.00;;;929.20;;
14015;SDS011;7083;48.854;9.158;2022-10-23T08:46:00;966.83;;;898.20;;
14015;SDS011;7083;48.854;9.158;2022-10-23T08:48:30;846.27;;;783.27;;
14015;SDS011;7083;48.854;9.158;2022-10-23T08:51:04;574.60;;;539.87;;
14015;SDS011;7083;48.854;9.158;2022-10-23T08:53:39;570.40;;;536.53;;
14015;SDS011;7083;48.854;9.158;2022-10-23T08:56:11;521.17;;;492.17;;
14015;SDS011;7083;48.854;9.158;2022-10-23T08:58:51;515.20;;;486.07;;
14015;SDS011;7083;48.854;9.158;2022-10-23T09:01:33;548.37;;;516.67;;
14015;SDS011;7083;48.854;9.158;2022-10-23T09:04:03;675.33;;;630.47;;
14015;SDS011;7083;48.854;9.158;2022-10-23T09:06:34;544.07;;;513.47;;
14015;SDS011;7083;48.854;9.158;2022-10-23T09:09:11;569.27;;;535.30;;
14015;SDS011;7083;48.854;9.158;2022-10-23T09:12:14;626.70;;;587.47;;
14015;SDS011;7083;48.854;9.158;2022-10-23T09:17:48;1148.87;;;999.90;;
14015;SDS011;7083;48.854;9.158;2022-10-23T09:20:21;992.30;;;908.70;;
14015;SDS011;7083;48.854;9.158;2022-10-23T09:22:52;637.17;;;599.80;;
14015;SDS011;7083;48.854;9.158;2022-10-23T09:25:22;685.23;;;642.10;;
14015;SDS011;7083;48.854;9.158;2022-10-23T09:27:51;723.77;;;676.53;;
14015;SDS011;7083;48.854;9.158;2022-10-23T09:30:30;689.20;;;646.77;;
14015;SDS011;7083;48.854;9.158;2022-10-23T09:32:59;705.50;;;660.50;;
14015;SDS011;7083;48.854;9.158;2022-10-23T09:35:38;695.73;;;652.70;;
14015;SDS011;7083;48.854;9.158;2022-10-23T09:38:20;780.17;;;725.77;;
14015;SDS011;7083;48.854;9.158;2022-10-23T09:40:53;764.87;;;713.33;;
14015;SDS011;7083;48.854;9.158;2022-10-23T09:43:21;857.83;;;792.07;;
14015;SDS011;7083;48.854;9.158;2022-10-23T09:45:57;783.07;;;732.80;;
14015;SDS011;7083;48.854;9.158;2022-10-23T09:48:26;782.50;;;730.50;;
14015;SDS011;7083;48.854;9.158;2022-10-23T09:50:53;777.60;;;727.67;;
14015;SDS011;7083;48.854;9.158;2022-10-23T09:53:24;809.83;;;754.33;;
14015;SDS011;7083;48.854;9.158;2022-10-23T09:55:59;815.37;;;760.63;;
14015;SDS011;7083;48.854;9.158;2022-10-23T09:58:29;840.70;;;779.20;;
14015;SDS011;7083;48.854;9.158;2022-10-23T10:00:59;945.50;;;873.07;;
14015;SDS011;7083;48.854;9.158;2022-10-23T10:03:27;962.60;;;884.37;;
14015;SDS011;7083;48.854;9.158;2022-10-23T10:05:55;947.70;;;874.00;;
14015;SDS011;7083;48.854;9.158;2022-10-23T10:08:26;1000.60;;;920.40;;
14015;SDS011;7083;48.854;9.158;2022-10-23T10:11:04;1146.20;;;999.90;;
14015;SDS011;7083;48.854;9.158;2022-10-23T10:13:46;1087.23;;;987.63;;
14015;SDS011;7083;48.854;9.158;2022-10-23T10:16:28;1107.00;;;997.60;;
14015;SDS011;7083;48.854;9.158;2022-10-23T10:19:09;1181.47;;;999.90;;
14015;SDS011;7083;48.854;9.158;2022-10-23T10:21:44;1159.93;;;999.90;;
14015;SDS011;7083;48.854;9.158;2022-10-23T10:24:17;1077.40;;;976.43;;
14015;SDS011;7083;48.854;9.158;2022-10-23T10:26:53;1038.37;;;943.97;;
14015;SDS011;7083;48.854;9.158;2022-10-23T10:29:29;1258.43;;;999.90;;
14015;SDS011;7083;48.854;9.158;2022-10-23T10:32:12;1359.00;;;999.90;;
14015;SDS011;7083;48.854;9.158;2022-10-23T10:34:50;1400.37;;;999.90;;
14015;SDS011;7083;48.854;9.158;2022-10-23T10:37:21;1200.47;;;999.90;;
14015;SDS011;7083;48.854;9.158;2022-10-23T10:39:57;1441.03;;;999.90;;
14015;SDS011;7083;48.854;9.158;2022-10-23T10:42:32;1692.77;;;999.90;;
14015;SDS011;7083;48.854;9.158;2022-10-23T10:45:16;1876.03;;;999.90;;
14015;SDS011;7083;48.854;9.158;2022-10-23T10:47:49;1838.40;;;999.90;;
14015;SDS011;7083;48.854;9.158;2022-10-23T10:50:25;1964.47;;;999.90;;
14015;SDS011;7083;48.854;9.158;2022-10-23T10:52:57;1999.90;;;999.90;;
14015;SDS011;7083;48.854;9.158;2022-10-23T10:55:32;1999.90;;;999.90;;
14015;SDS011;7083;48.854;9.158;2022-10-23T10:58:04;1999.90;;;999.90;;
14015;SDS011;7083;48.854;9.158;2022-10-23T11:00:40;1999.90;;;999.90;;
14015;SDS011;7083;48.854;9.158;2022-10-23T11:03:10;1999.90;;;999.90;;
14015;SDS011;7083;48.854;9.158;2022-10-23T11:05:49;1999.90;;;999.90;;
14015;SDS011;7083;48.854;9.158;2022-10-23T11:08:18;1999.90;;;999.90;;
14015;SDS011;7083;48.854;9.158;2022-10-23T11:10:52;1999.90;;;999.90;;
14015;SDS011;7083;48.854;9.158;2022-10-23T11:13:25;1999.90;;;999.90;;
14015;SDS011;7083;48.854;9.158;2022-10-23T11:15:53;1999.90;;;999.90;;
14015;SDS011;7083;48.854;9.158;2022-10-23T11:18:24;1999.90;;;999.90;;
14015;SDS011;7083;48.854;9.158;2022-10-23T11:20:56;1999.90;;;999.90;;
14015;SDS011;7083;48.854;9.158;2022-10-23T11:26:26;1999.90;;;999.90;;
14015;SDS011;7083;48.854;9.158;2022-10-23T11:29:19;1999.90;;;999.90;;
14015;SDS011;7083;48.854;9.158;2022-10-23T11:32:00;1999.90;;;999.90;;
14015;SDS011;7083;48.854;9.158;2022-10-23T11:34:43;1999.90;;;999.90;;
14015;SDS011;7083;48.854;9.158;2022-10-23T11:37:25;1999.90;;;999.90;;
14015;SDS011;7083;48.854;9.158;2022-10-23T11:39:56;1999.90;;;999.90;;
14015;SDS011;7083;48.854;9.158;2022-10-23T11:42:28;1999.90;;;999.90;;
14015;SDS011;7083;48.854;9.158;2022-10-23T11:44:58;1999.90;;;999.90;;
14015;SDS011;7083;48.854;9.158;2022-10-23T11:47:26;1999.90;;;999.90;;
14015;SDS011;7083;48.854;9.158;2022-10-23T11:50:12;1999.90;;;999.90;;
14015;SDS011;7083;48.854;9.158;2022-10-23T11:52:51;1999.90;;;999.90;;
14015;SDS011;7083;48.854;9.158;2022-10-23T11:55:21;1999.90;;;999.90;;
14015;SDS011;7083;48.854;9.158;2022-10-23T11:58:04;1999.90;;;999.90;;
14015;SDS011;7083;48.854;9.158;2022-10-23T12:00:52;1999.90;;;864.70;;
14015;SDS011;7083;48.854;9.158;2022-10-23T12:03:24;1999.90;;;887.27;;
14015;SDS011;7083;48.854;9.158;2022-10-23T12:06:03;1993.10;;;661.90;;
14015;SDS011;7083;48.854;9.158;2022-10-23T12:08:32;1760.67;;;554.20;;
14015;SDS011;7083;48.854;9.158;2022-10-23T12:11:00;1927.07;;;641.70;;
14015;SDS011;7083;48.854;9.158;2022-10-23T12:13:41;1799.83;;;608.73;;
14015;SDS011;7083;48.854;9.158;2022-10-23T12:16:11;1588.77;;;528.57;;
14015;SDS011;7083;48.854;9.158;2022-10-23T12:18:45;1863.03;;;845.00;;
14015;SDS011;7083;48.854;9.158;2022-10-23T12:21:16;1999.90;;;904.33;;
14015;SDS011;7083;48.854;9.158;2022-10-23T12:26:53;1715.87;;;792.57;;
14015;SDS011;7083;48.854;9.158;2022-10-23T12:29:41;1999.90;;;999.90;;
14015;SDS011;7083;48.854;9.158;2022-10-23T12:32:26;1999.90;;;999.90;;
14015;SDS011;7083;48.854;9.158;2022-10-23T12:35:14;1999.90;;;999.90;;
14015;SDS011;7083;48.854;9.158;2022-10-23T12:37:59;1999.90;;;999.90;;
14015;SDS011;7083;48.854;9.158;2022-10-23T12:40:33;1999.90;;;999.90;;
14015;SDS011;7083;48.854;9.158;2022-10-23T12:43:00;1999.90;;;999.90;;
14015;SDS011;7083;48.854;9.158;2022-10-23T12:45:27;1999.90;;;999.90;;
14015;SDS011;7083;48.854;9.158;2022-10-23T12:47:58;1999.90;;;999.90;;
14015;SDS011;7083;48.854;9.158;2022-10-23T12:50:26;1999.90;;;999.90;;
14015;SDS011;7083;48.854;9.158;2022-10-23T12:52:54;1999.90;;;999.90;;
14015;SDS011;7083;48.854;9.158;2022-10-23T12:55:23;1999.90;;;999.90;;
14015;SDS011;7083;48.854;9.158;2022-10-23T12:57:51;1999.90;;;999.90;;
14015;SDS011;7083;48.854;9.158;2022-10-23T13:00:20;1999.90;;;999.90;;
14015;SDS011;7083;48.854;9.158;2022-10-23T13:02:56;1999.90;;;999.90;;
14015;SDS011;7083;48.854;9.158;2022-10-23T13:05:25;1999.90;;;999.90;;
14015;SDS011;7083;48.854;9.158;2022-10-23T13:07:52;1999.90;;;999.90;;
14015;SDS011;7083;48.854;9.158;2022-10-23T13:10:20;1999.90;;;999.90;;
14015;SDS011;7083;48.854;9.158;2022-10-23T13:12:49;1999.90;;;999.90;;
14015;SDS011;7083;48.854;9.158;2022-10-23T13:15:19;1999.90;;;999.90;;
14015;SDS011;7083;48.854;9.158;2022-10-23T13:17:59;1999.90;;;999.90;;
14015;SDS011;7083;48.854;9.158;2022-10-23T13:20:27;1999.90;;;999.90;;
14015;SDS011;7083;48.854;9.158;2022-10-23T13:22:57;1999.90;;;999.90;;
14015;SDS011;7083;48.854;9.158;2022-10-23T13:25:28;1999.90;;;999.90;;
14015;SDS011;7083;48.854;9.158;2022-10-23T13:30:56;1999.90;;;999.90;;
14015;SDS011;7083;48.854;9.158;2022-10-23T13:33:32;1999.90;;;999.90;;
14015;SDS011;7083;48.854;9.158;2022-10-23T13:36:02;1999.90;;;999.90;;
14015;SDS011;7083;48.854;9.158;2022-10-23T13:38:31;1999.90;;;999.90;;
14015;SDS011;7083;48.854;9.158;2022-10-23T13:41:00;1999.90;;;999.90;;
14015;SDS011;7083;48.854;9.158;2022-10-23T13:43:29;1999.90;;;999.90;;
14015;SDS011;7083;48.854;9.158;2022-10-23T13:45:56;1999.90;;;999.90;;
14015;SDS011;7083;48.854;9.158;2022-10-23T13:48:24;1999.90;;;999.90;;
14015;SDS011;7083;48.854;9.158;2022-10-23T13:50:52;1999.90;;;999.90;;
14015;SDS011;7083;48.854;9.158;2022-10-23T13:53:23;1999.90;;;999.90;;
14015;SDS011;7083;48.854;9.158;2022-10-23T13:55:50;1999.90;;;999.90;;
14015;SDS011;7083;48.854;9.158;2022-10-23T13:58:17;1217.40;;;532.47;;
14015;SDS011;7083;48.854;9.158;2022-10-23T14:00:44;1999.90;;;999.90;;
14015;SDS011;7083;48.854;9.158;2022-10-23T14:03:12;1766.63;;;656.77;;
14015;SDS011;7083;48.854;9.158;2022-10-23T14:05:39;1999.90;;;790.10;;
14015;SDS011;7083;48.854;9.158;2022-10-23T14:08:07;1999.90;;;986.43;;
14015;SDS011;7083;48.854;9.158;2022-10-23T14:10:34;1999.90;;;999.90;;
14015;SDS011;7083;48.854;9.158;2022-10-23T14:13:00;1999.90;;;999.90;;
14015;SDS011;7083;48.854;9.158;2022-10-23T14:15:27;1999.90;;;999.90;;
14015;SDS011;7083;48.854;9.158;2022-10-23T14:17:54;1999.90;;;999.90;;
14015;SDS011;7083;48.854;9.158;2022-10-23T14:20:21;1999.90;;;999.90;;
14015;SDS011;7083;48.854;9.158;2022-10-23T14:22:47;1999.90;;;999.90;;
14015;SDS011;7083;48.854;9.158;2022-10-23T14:25:15;1999.90;;;999.90;;
14015;SDS011;7083;48.854;9.158;2022-10-23T14:27:42;1999.90;;;999.90;;
14015;SDS011;7083;48.854;9.158;2022-10-23T14:30:10;1999.90;;;999.90;;
14015;SDS011;7083;48.854;9.158;2022-10-23T14:32:37;1999.90;;;999.90;;